Time;durP1;ratioP1;P1;durP2;ratioP2;P2;SDS_P1;SDS_P2;PMS_P1;PMS_P2;Temp;Humidity;BMP_temperature;BMP_pressure;BME280_temperature;BME280_humidity;BME280_pressure;Samples;Min_cycle;Max_cycle;Signal;HPM_P1;HPM_P2
2021/05/24 00:01:39;;;;;;;3.80;1.00;;;13.30;99.90;;;;;;5067685;28;20039;-86
2021/05/24 00:04:08;;;;;;;2.38;0.80;;;13.40;99.90;;;;;;5047271;28;20033;-90
2021/05/24 00:06:34;;;;;;;2.35;0.70;;;13.30;99.90;;;;;;5066778;28;20453;-88
2021/05/24 00:08:59;;;;;;;4.93;1.10;;;13.40;99.90;;;;;;5067085;28;20129;-90
2021/05/24 00:11:25;;;;;;;1.50;0.70;;;13.40;99.90;;;;;;5067556;28;20028;-89
2021/05/24 00:13:55;;;;;;;1.95;0.75;;;13.50;99.70;;;;;;5067191;28;20055;-90
2021/05/24 00:16:23;;;;;;;3.70;1.02;;;13.50;99.50;;;;;;5053604;28;20033;-91
2021/05/24 00:18:54;;;;;;;1.65;0.70;;;13.60;98.70;;;;;;5068717;28;20468;-87
2021/05/24 00:21:21;;;;;;;2.72;0.77;;;13.70;98.60;;;;;;5068318;28;20111;-85
2021/05/24 00:23:47;;;;;;;3.53;0.80;;;13.70;98.50;;;;;;5066908;28;20028;-88
2021/05/24 00:26:14;;;;;;;2.20;0.73;;;13.80;98.60;;;;;;5067060;28;20059;-87
2021/05/24 00:28:41;;;;;;;2.53;0.70;;;13.80;98.60;;;;;;5066922;28;20594;-88
2021/05/24 00:31:08;;;;;;;3.70;1.08;;;13.80;98.50;;;;;;5068264;28;20042;-92
2021/05/24 00:33:34;;;;;;;2.63;0.68;;;13.80;98.30;;;;;;5050986;28;20037;-87
2021/05/24 00:36:00;;;;;;;3.70;1.00;;;13.80;98.70;;;;;;5065324;28;20039;-91
2021/05/24 00:38:26;;;;;;;3.47;0.93;;;13.80;98.50;;;;;;5070244;28;20035;-88
2021/05/24 00:40:52;;;;;;;2.15;0.73;;;13.80;98.20;;;;;;5070905;28;20024;-89
2021/05/24 00:43:18;;;;;;;3.08;0.75;;;13.80;98.50;;;;;;5064143;28;20501;-94
2021/05/24 00:45:45;;;;;;;5.13;1.02;;;13.90;98.60;;;;;;5064483;28;20059;-89
2021/05/24 00:48:11;;;;;;;2.45;0.73;;;13.80;98.40;;;;;;5048375;28;20503;-91
2021/05/24 00:50:39;;;;;;;3.28;0.75;;;13.80;98.90;;;;;;5069353;28;20024;-88
2021/05/24 00:53:07;;;;;;;2.00;0.68;;;13.80;99.00;;;;;;5071987;28;20040;-88
2021/05/24 00:55:39;;;;;;;3.28;0.68;;;13.80;98.50;;;;;;5070377;28;20024;-87
2021/05/24 00:58:08;;;;;;;3.95;0.80;;;13.80;98.80;;;;;;5061590;28;20031;-91
2021/05/24 01:00:44;;;;;;;2.47;0.60;;;13.80;98.40;;;;;;5071692;28;20491;-89
2021/05/24 01:03:14;;;;;;;1.95;0.60;;;13.90;98.10;;;;;;5061291;28;20116;-87
2021/05/24 01:05:46;;;;;;;2.20;0.65;;;13.90;98.40;;;;;;5066446;28;20037;-88
2021/05/24 01:08:14;;;;;;;2.67;0.80;;;13.90;98.80;;;;;;5071027;28;20021;-88
2021/05/24 01:10:41;;;;;;;2.95;0.60;;;13.90;98.70;;;;;;5061553;28;20291;-86
2021/05/24 01:13:08;;;;;;;3.00;0.60;;;13.90;99.10;;;;;;5066281;28;20012;-86
2021/05/24 01:15:37;;;;;;;3.10;0.70;;;13.90;99.00;;;;;;5065475;28;20066;-86
2021/05/24 01:18:03;;;;;;;2.20;0.65;;;13.90;98.60;;;;;;5066797;28;20025;-85
2021/05/24 01:20:28;;;;;;;2.00;0.60;;;13.90;99.30;;;;;;5065374;28;20013;-91
2021/05/24 01:25:34;;;;;;;2.28;0.60;;;13.90;99.10;;;;;;5066708;28;20032;-86
2021/05/24 01:28:00;;;;;;;2.70;0.68;;;13.90;99.20;;;;;;5069684;28;20033;-89
2021/05/24 01:30:32;;;;;;;2.85;0.40;;;13.90;99.30;;;;;;5040399;28;20021;-89
2021/05/24 01:32:58;;;;;;;3.38;1.10;;;13.80;99.30;;;;;;5056995;28;20031;-88
2021/05/24 01:35:27;;;;;;;3.55;0.60;;;13.80;99.50;;;;;;5065534;28;20025;-89
2021/05/24 01:37:56;;;;;;;2.67;0.88;;;13.80;99.60;;;;;;5065471;28;20032;-90
2021/05/24 01:40:27;;;;;;;3.53;0.95;;;13.80;99.40;;;;;;5057514;28;20033;-88
2021/05/24 01:42:57;;;;;;;1.55;0.40;;;13.80;99.00;;;;;;5056578;28;20113;-87
2021/05/24 01:45:27;;;;;;;2.40;0.40;;;13.80;99.30;;;;;;5074280;28;20063;-86
2021/05/24 01:47:54;;;;;;;2.90;0.52;;;13.80;99.20;;;;;;5045593;28;20037;-91
2021/05/24 01:50:20;;;;;;;2.58;0.55;;;13.80;99.20;;;;;;5068145;28;20032;-88
2021/05/24 01:52:46;;;;;;;2.08;0.60;;;13.80;99.60;;;;;;5055978;28;20118;-87
2021/05/24 01:55:12;;;;;;;4.90;0.60;;;13.80;99.50;;;;;;5066844;28;20025;-86
2021/05/24 01:57:42;;;;;;;2.30;0.93;;;13.80;99.70;;;;;;5061837;28;20074;-88
2021/05/24 02:00:19;;;;;;;1.52;0.47;;;13.70;99.50;;;;;;5058847;28;20111;-88
2021/05/24 02:02:45;;;;;;;1.38;0.40;;;13.80;99.80;;;;;;5069665;28;20411;-87
2021/05/24 02:05:12;;;;;;;3.35;0.65;;;13.70;99.90;;;;;;5058528;28;20357;-90
2021/05/24 02:07:42;;;;;;;2.10;0.73;;;13.70;99.90;;;;;;5063697;28;20025;-87
2021/05/24 02:10:19;;;;;;;3.08;0.40;;;13.70;99.40;;;;;;5068370;28;20044;-88
2021/05/24 02:12:52;;;;;;;2.65;0.60;;;13.70;99.70;;;;;;5058477;28;20112;-90
2021/05/24 02:15:24;;;;;;;4.40;1.03;;;13.70;99.90;;;;;;5067621;28;20021;-90
2021/05/24 02:17:49;;;;;;;3.83;0.75;;;13.70;99.70;;;;;;5066196;28;20032;-85
2021/05/24 02:20:22;;;;;;;2.15;0.60;;;13.60;99.90;;;;;;5058814;28;20025;-87
2021/05/24 02:22:50;;;;;;;3.22;0.90;;;13.60;99.90;;;;;;5070065;28;20021;-86
2021/05/24 02:25:19;;;;;;;0.93;0.60;;;13.60;99.90;;;;;;5059765;28;20025;-85
2021/05/24 02:27:48;;;;;;;1.63;0.50;;;13.60;99.90;;;;;;5062964;28;20103;-87
2021/05/24 02:30:15;;;;;;;1.88;0.90;;;13.60;99.90;;;;;;5067857;28;20035;-86
2021/05/24 02:32:44;;;;;;;1.73;0.50;;;13.60;99.90;;;;;;5056352;28;20041;-86
2021/05/24 02:35:13;;;;;;;2.78;0.60;;;13.60;99.90;;;;;;5067567;28;20503;-91
2021/05/24 02:37:40;;;;;;;1.75;0.50;;;13.60;99.90;;;;;;5063024;28;20040;-88
2021/05/24 02:40:10;;;;;;;1.75;0.60;;;13.50;99.90;;;;;;5060118;28;20020;-91
2021/05/24 02:42:37;;;;;;;1.60;0.47;;;13.50;99.90;;;;;;5069589;28;20028;-86
2021/05/24 02:45:09;;;;;;;3.78;0.90;;;13.50;99.90;;;;;;5057771;28;20028;-92
2021/05/24 02:50:59;;;;;;;2.83;0.60;;;13.50;99.90;;;;;;5058379;28;20373;-88
2021/05/24 02:53:25;;;;;;;1.33;0.47;;;13.40;99.90;;;;;;5066325;28;20385;-86
2021/05/24 02:55:50;;;;;;;2.90;0.77;;;13.40;99.90;;;;;;5047541;28;20037;-87
2021/05/24 02:58:19;;;;;;;1.70;0.50;;;13.40;99.90;;;;;;5058071;28;20013;-95
2021/05/24 03:00:50;;;;;;;2.28;0.60;;;13.30;99.90;;;;;;5069322;28;20112;-87
2021/05/24 03:03:21;;;;;;;3.03;0.60;;;13.20;99.90;;;;;;5059179;28;20090;-87
2021/05/24 03:05:47;;;;;;;1.40;0.60;;;13.20;99.90;;;;;;5063210;28;20029;-86
2021/05/24 03:08:20;;;;;;;3.72;0.88;;;13.10;99.90;;;;;;5067530;28;20066;-87
2021/05/24 03:10:52;;;;;;;1.98;0.60;;;13.10;99.90;;;;;;5056119;28;20051;-92
2021/05/24 03:13:17;;;;;;;2.05;0.70;;;13.00;99.90;;;;;;5067316;28;20096;-87
2021/05/24 03:15:47;;;;;;;2.13;0.60;;;13.00;99.90;;;;;;5064053;28;20112;-87
2021/05/24 03:18:12;;;;;;;1.55;0.63;;;12.90;99.90;;;;;;5042032;28;20064;-86
2021/05/24 03:20:41;;;;;;;1.77;0.68;;;12.90;99.90;;;;;;5054114;28;20052;-87
2021/05/24 03:23:10;;;;;;;1.95;0.77;;;12.90;99.90;;;;;;5068536;28;20493;-87
2021/05/24 03:25:43;;;;;;;2.05;0.77;;;12.90;99.90;;;;;;5063152;28;20025;-87
2021/05/24 03:28:09;;;;;;;;;;;12.80;99.90;;;;;;5059451;28;20059;-89
2021/05/24 03:30:34;;;;;;;4.57;1.00;;;12.80;99.90;;;;;;5054199;28;19905;-87
2021/05/24 03:33:00;;;;;;;4.68;1.08;;;12.80;99.90;;;;;;5067781;28;20025;-86
2021/05/24 03:35:26;;;;;;;3.00;0.60;;;12.80;99.90;;;;;;5061758;28;20028;-88
2021/05/24 03:37:52;;;;;;;2.70;1.00;;;12.80;99.90;;;;;;5062702;28;20025;-87
2021/05/24 03:40:18;;;;;;;2.20;0.68;;;12.80;99.90;;;;;;5067404;28;20434;-85
2021/05/24 03:42:47;;;;;;;2.60;0.60;;;12.80;99.90;;;;;;5069938;28;20123;-86
2021/05/24 03:45:22;;;;;;;2.92;0.82;;;12.70;99.90;;;;;;5058583;28;20017;-87
2021/05/24 03:47:48;;;;;;;2.55;0.73;;;12.70;99.90;;;;;;5072263;28;20085;-88
2021/05/24 03:50:17;;;;;;;1.42;0.47;;;12.70;99.90;;;;;;5058205;28;20025;-87
2021/05/24 03:52:44;;;;;;;4.57;0.98;;;12.70;99.90;;;;;;5070101;28;20032;-86
2021/05/24 03:55:11;;;;;;;2.63;0.85;;;12.70;99.90;;;;;;5059639;28;20074;-86
2021/05/24 03:57:37;;;;;;;2.67;0.95;;;12.60;99.90;;;;;;5063988;28;20104;-87
2021/05/24 04:00:09;;;;;;;2.90;0.70;;;12.60;99.90;;;;;;5048377;28;20056;-89
2021/05/24 04:02:34;;;;;;;1.85;0.60;;;12.60;99.90;;;;;;5052667;28;20115;-88
2021/05/24 04:05:07;;;;;;;4.05;0.70;;;12.60;99.90;;;;;;5067816;28;20104;-88
2021/05/24 04:07:33;;;;;;;1.65;0.70;;;12.60;99.90;;;;;;5064086;28;20025;-87
2021/05/24 04:09:59;;;;;;;1.65;0.60;;;12.60;99.90;;;;;;5064276;28;20411;-86
2021/05/24 04:12:25;;;;;;;2.38;0.70;;;12.60;99.90;;;;;;5071856;28;20488;-87
2021/05/24 04:14:50;;;;;;;1.15;0.50;;;12.70;99.90;;;;;;5059744;28;20411;-87
2021/05/24 04:17:19;;;;;;;3.35;0.68;;;12.60;99.90;;;;;;5069570;28;20029;-91
2021/05/24 04:19:45;;;;;;;4.22;1.00;;;12.60;99.90;;;;;;5067894;28;20020;-88
2021/05/24 04:22:11;;;;;;;3.50;0.80;;;12.60;99.90;;;;;;5062138;28;20028;-87
2021/05/24 04:24:37;;;;;;;4.75;0.52;;;12.60;99.90;;;;;;5072360;28;20119;-85
2021/05/24 04:27:02;;;;;;;1.45;0.60;;;12.60;99.90;;;;;;5060325;28;20123;-89
2021/05/24 04:29:28;;;;;;;1.17;0.55;;;12.60;99.90;;;;;;5067229;28;20440;-87
2021/05/24 04:31:54;;;;;;;2.13;0.55;;;12.60;99.90;;;;;;5067386;28;20560;-87
2021/05/24 04:34:19;;;;;;;3.13;0.88;;;12.60;99.90;;;;;;5060991;28;20037;-90
2021/05/24 04:36:48;;;;;;;3.00;0.80;;;12.60;99.90;;;;;;5072127;28;20457;-86
2021/05/24 04:39:14;;;;;;;2.90;0.80;;;12.60;99.90;;;;;;5062190;28;20028;-90
2021/05/24 04:41:39;;;;;;;2.70;0.77;;;12.60;99.90;;;;;;5048809;28;20388;-86
2021/05/24 04:44:12;;;;;;;4.45;0.85;;;12.60;99.90;;;;;;5068686;28;20024;-86
2021/05/24 04:46:38;;;;;;;1.35;0.50;;;12.60;99.90;;;;;;5058552;28;20512;-87
2021/05/24 04:49:04;;;;;;;2.60;0.70;;;12.60;99.90;;;;;;5070128;28;20025;-87
2021/05/24 04:51:29;;;;;;;2.72;0.60;;;12.60;99.90;;;;;;5055398;28;20425;-86
2021/05/24 04:53:55;;;;;;;2.50;0.70;;;12.60;99.90;;;;;;5067120;28;20020;-87
2021/05/24 04:56:21;;;;;;;2.33;0.70;;;12.60;99.90;;;;;;5059746;28;20040;-86
2021/05/24 04:58:50;;;;;;;3.58;0.70;;;12.60;99.90;;;;;;5071744;28;20020;-87
2021/05/24 05:01:16;;;;;;;1.73;0.60;;;12.60;99.90;;;;;;5062673;28;20051;-89
2021/05/24 05:03:42;;;;;;;3.25;0.90;;;12.60;99.90;;;;;;5065167;28;20021;-87
2021/05/24 05:06:08;;;;;;;1.73;0.60;;;12.60;99.90;;;;;;5068575;28;20052;-87
2021/05/24 05:08:34;;;;;;;2.00;0.57;;;12.60;99.90;;;;;;5059642;28;20031;-85
2021/05/24 05:11:00;;;;;;;4.13;0.65;;;12.70;99.90;;;;;;5070170;28;20485;-87
2021/05/24 05:13:25;;;;;;;2.40;0.60;;;12.60;99.90;;;;;;5046200;28;20051;-87
2021/05/24 05:15:54;;;;;;;1.70;0.60;;;12.60;99.90;;;;;;5063475;28;20029;-86
2021/05/24 05:18:20;;;;;;;4.32;0.70;;;12.70;99.90;;;;;;5069122;28;20373;-87
2021/05/24 05:20:48;;;;;;;1.52;0.60;;;12.70;99.90;;;;;;5058333;28;20021;-87
2021/05/24 05:23:17;;;;;;;1.90;0.70;;;12.70;99.90;;;;;;5068388;28;20082;-86
2021/05/24 05:25:45;;;;;;;2.65;0.70;;;12.70;99.90;;;;;;5064846;28;20051;-87
2021/05/24 05:28:11;;;;;;;0.95;0.50;;;12.70;99.90;;;;;;5061871;28;20025;-87
2021/05/24 05:30:37;;;;;;;2.40;0.75;;;12.70;99.90;;;;;;5054185;28;20038;-88
2021/05/24 05:33:03;;;;;;;6.13;0.98;;;12.80;99.90;;;;;;5059123;28;20028;-86
2021/05/24 05:35:29;;;;;;;2.05;1.00;;;12.80;99.90;;;;;;5066138;28;20025;-88
2021/05/24 05:37:55;;;;;;;3.63;0.68;;;12.80;99.90;;;;;;5066292;28;20030;-88
2021/05/24 05:40:31;;;;;;;1.70;0.70;;;12.80;99.90;;;;;;5058852;28;20013;-87
2021/05/24 05:42:59;;;;;;;2.30;0.50;;;12.80;99.90;;;;;;5054259;28;20067;-87
2021/05/24 05:45:25;;;;;;;2.33;0.65;;;12.90;99.90;;;;;;5062204;28;20529;-91
2021/05/24 05:47:51;;;;;;;2.20;0.60;;;12.90;99.90;;;;;;5064416;28;20121;-89
2021/05/24 05:50:21;;;;;;;3.10;0.70;;;13.00;99.90;;;;;;5069043;28;20035;-89
2021/05/24 05:52:47;;;;;;;6.88;1.10;;;13.00;99.90;;;;;;5057900;28;20025;-87
2021/05/24 05:55:16;;;;;;;2.10;0.68;;;13.00;99.90;;;;;;5051355;28;20033;-86
2021/05/24 05:57:42;;;;;;;2.55;1.00;;;13.00;99.90;;;;;;5064528;28;20024;-88
2021/05/24 06:00:12;;;;;;;3.10;0.73;;;13.10;99.90;;;;;;5061335;28;20024;-86
2021/05/24 06:02:38;;;;;;;2.22;0.50;;;13.10;99.90;;;;;;5071598;28;20380;-86
2021/05/24 06:05:16;;;;;;;2.78;0.70;;;13.20;99.90;;;;;;5037854;28;20021;-86
2021/05/24 06:07:53;;;;;;;2.08;0.63;;;13.30;99.90;;;;;;5038511;28;20041;-90
2021/05/24 06:10:21;;;;;;;2.60;0.80;;;13.30;99.90;;;;;;5053644;28;20048;-88
2021/05/24 06:12:53;;;;;;;1.95;0.50;;;13.30;99.90;;;;;;5057304;28;20032;-88
2021/05/24 06:15:21;;;;;;;3.75;1.00;;;13.30;99.90;;;;;;5062406;28;20530;-91
2021/05/24 06:17:53;;;;;;;2.50;0.70;;;13.40;99.90;;;;;;5065829;28;20028;-92
2021/05/24 06:20:25;;;;;;;2.28;0.50;;;13.40;99.90;;;;;;5058670;28;20025;-88
2021/05/24 06:22:54;;;;;;;5.22;0.90;;;13.50;99.90;;;;;;5071859;28;20103;-90
2021/05/24 06:25:37;;;;;;;2.63;0.75;;;13.40;99.90;;;;;;5060993;28;20162;-90
2021/05/24 06:28:03;;;;;;;2.13;0.60;;;13.50;99.90;;;;;;5060790;28;20491;-87
2021/05/24 06:30:32;;;;;;;1.75;0.55;;;13.50;99.90;;;;;;5069596;28;20025;-90
2021/05/24 06:33:07;;;;;;;3.33;0.88;;;13.50;99.90;;;;;;5057395;28;20068;-88
2021/05/24 06:35:34;;;;;;;2.38;0.80;;;13.50;99.90;;;;;;5063921;28;20115;-86
2021/05/24 06:37:59;;;;;;;1.42;0.60;;;13.50;99.90;;;;;;5066640;28;20024;-86
2021/05/24 06:40:32;;;;;;;3.17;0.70;;;13.50;99.90;;;;;;5056937;28;20079;-86
2021/05/24 06:43:04;;;;;;;2.03;0.50;;;13.50;99.90;;;;;;5057044;28;20051;-86
2021/05/24 06:45:36;;;;;;;1.45;0.50;;;13.50;99.90;;;;;;5068760;28;20032;-86
2021/05/24 06:48:02;;;;;;;2.47;0.60;;;13.50;99.90;;;;;;5065825;28;20036;-85
2021/05/24 06:50:34;;;;;;;2.03;0.80;;;13.50;99.90;;;;;;5055575;28;20025;-85
2021/05/24 06:52:59;;;;;;;0.90;0.40;;;13.50;99.90;;;;;;5058670;28;20028;-84
2021/05/24 06:55:25;;;;;;;0.98;0.40;;;13.50;99.90;;;;;;5064665;28;20081;-84
2021/05/24 06:57:58;;;;;;;0.55;0.30;;;13.50;99.90;;;;;;5063669;28;20032;-84
2021/05/24 07:00:27;;;;;;;0.93;0.50;;;13.50;99.90;;;;;;5057967;28;20111;-84
2021/05/24 07:02:54;;;;;;;3.13;0.60;;;13.50;99.90;;;;;;5070544;28;20021;-86
2021/05/24 07:05:27;;;;;;;1.75;0.50;;;13.40;99.90;;;;;;5059824;28;20028;-84
2021/05/24 07:08:01;;;;;;;2.17;0.40;;;13.30;99.90;;;;;;5063701;28;20032;-84
2021/05/24 07:10:30;;;;;;;1.10;0.50;;;13.20;99.90;;;;;;5051280;28;20053;-85
2021/05/24 07:12:59;;;;;;;1.25;0.43;;;13.10;99.90;;;;;;5036001;28;20028;-85
2021/05/24 07:15:27;;;;;;;2.05;0.52;;;12.90;99.90;;;;;;5060859;28;20028;-85
2021/05/24 07:17:57;;;;;;;1.95;0.50;;;12.80;99.90;;;;;;5062158;28;20059;-86
2021/05/24 07:20:23;;;;;;;3.15;0.60;;;12.70;99.90;;;;;;5068040;28;20483;-85
2021/05/24 07:22:58;;;;;;;1.42;0.47;;;12.70;99.90;;;;;;5055522;28;20566;-85
2021/05/24 07:25:27;;;;;;;0.80;0.40;;;12.70;99.90;;;;;;5064313;28;20021;-86
2021/05/24 07:27:54;;;;;;;0.45;0.40;;;12.70;99.90;;;;;;5063813;28;20056;-86
2021/05/24 07:30:20;;;;;;;1.02;0.30;;;12.70;99.90;;;;;;5054230;28;20033;-86
2021/05/24 07:32:46;;;;;;;0.90;0.43;;;12.70;99.90;;;;;;5066767;28;20024;-85
2021/05/24 07:35:14;;;;;;;1.25;0.60;;;12.70;99.90;;;;;;5056121;28;20383;-85
2021/05/24 07:37:40;;;;;;;1.20;0.47;;;12.70;99.90;;;;;;5043959;28;20040;-86
2021/05/24 07:40:10;;;;;;;1.83;0.73;;;12.60;99.90;;;;;;5062999;28;20016;-85
2021/05/24 07:42:37;;;;;;;1.27;0.68;;;12.50;99.90;;;;;;5053165;28;20020;-86
2021/05/24 07:45:09;;;;;;;1.48;0.50;;;12.40;99.90;;;;;;5049142;28;20039;-86
2021/05/24 07:47:36;;;;;;;2.40;0.47;;;12.30;99.90;;;;;;5047783;28;20036;-86
2021/05/24 07:50:06;;;;;;;2.03;0.43;;;12.30;99.90;;;;;;5067885;28;20063;-86
2021/05/24 07:52:33;;;;;;;3.47;0.50;;;12.20;99.90;;;;;;5042010;28;20029;-87
2021/05/24 07:55:01;;;;;;;1.70;0.60;;;12.30;99.90;;;;;;5060018;28;20027;-86
2021/05/24 07:57:28;;;;;;;1.35;0.55;;;12.30;99.90;;;;;;5064402;28;20067;-86
2021/05/24 07:59:54;;;;;;;1.00;0.50;;;12.40;99.90;;;;;;5044625;28;20075;-86
2021/05/24 08:02:24;;;;;;;3.13;0.80;;;12.40;99.90;;;;;;5056719;28;20032;-87
2021/05/24 08:04:51;;;;;;;1.63;0.50;;;12.40;99.90;;;;;;5063700;28;20036;-87
2021/05/24 08:07:19;;;;;;;0.88;0.57;;;12.40;99.90;;;;;;5059890;28;20035;-86
2021/05/24 08:09:46;;;;;;;1.55;0.85;;;12.50;99.90;;;;;;5037922;28;20049;-87
2021/05/24 08:12:13;;;;;;;2.75;0.73;;;12.40;99.90;;;;;;5043988;28;20055;-87
2021/05/24 08:14:39;;;;;;;1.63;0.70;;;12.40;99.90;;;;;;5059264;28;20021;-87
2021/05/24 08:17:05;;;;;;;1.33;0.60;;;12.40;99.90;;;;;;5061917;28;20028;-88
2021/05/24 08:19:31;;;;;;;1.60;0.65;;;12.30;99.90;;;;;;5055951;28;20461;-87
2021/05/24 08:21:56;;;;;;;1.63;0.52;;;12.30;99.90;;;;;;5059353;28;20017;-87
2021/05/24 08:24:28;;;;;;;2.55;0.75;;;12.30;99.90;;;;;;5060337;28;20032;-87
2021/05/24 08:26:54;;;;;;;2.30;1.00;;;12.30;99.90;;;;;;5063037;28;20075;-87
2021/05/24 08:29:20;;;;;;;2.25;0.85;;;12.30;99.90;;;;;;5062185;28;20025;-88
2021/05/24 08:31:46;;;;;;;3.15;0.80;;;12.30;99.90;;;;;;5062559;28;20559;-87
2021/05/24 08:34:12;;;;;;;1.55;0.60;;;12.30;99.90;;;;;;5061554;28;20029;-87
2021/05/24 08:36:39;;;;;;;0.80;0.52;;;12.40;99.90;;;;;;5060824;28;20063;-87
2021/05/24 08:39:07;;;;;;;2.97;0.85;;;12.50;99.90;;;;;;5060218;28;20032;-87
2021/05/24 08:41:33;;;;;;;2.40;0.60;;;12.50;99.90;;;;;;5065865;28;20178;-87
2021/05/24 08:44:01;;;;;;;1.85;0.90;;;12.50;99.90;;;;;;5062132;28;20021;-86
2021/05/24 08:46:27;;;;;;;4.03;1.00;;;12.50;99.90;;;;;;5060296;28;20376;-87
2021/05/24 08:48:54;;;;;;;3.35;1.02;;;12.50;99.90;;;;;;5062115;28;20025;-87
2021/05/24 08:51:20;;;;;;;2.70;0.90;;;12.50;99.90;;;;;;5062044;28;20021;-87
2021/05/24 08:53:49;;;;;;;2.70;1.00;;;12.50;99.90;;;;;;5060048;28;20079;-87
2021/05/24 08:56:16;;;;;;;2.65;0.90;;;12.40;99.90;;;;;;5062909;28;20039;-88
2021/05/24 08:58:44;;;;;;;3.17;1.13;;;12.40;99.90;;;;;;5062869;28;20029;-88
2021/05/24 09:01:10;;;;;;;3.97;1.27;;;12.40;99.90;;;;;;5065977;28;20033;-88
2021/05/24 09:03:37;;;;;;;3.35;1.30;;;12.40;99.90;;;;;;5064938;28;20021;-87
2021/05/24 09:06:07;;;;;;;3.78;1.40;;;12.30;99.90;;;;;;5066493;28;20033;-89
2021/05/24 09:08:38;;;;;;;2.25;1.20;;;12.30;99.90;;;;;;5060419;28;20321;-87
2021/05/24 09:11:05;;;;;;;2.97;1.02;;;12.20;99.90;;;;;;5065831;28;20054;-87
2021/05/24 09:13:35;;;;;;;4.05;1.08;;;12.10;99.90;;;;;;5064259;28;20496;-88
2021/05/24 09:16:00;;;;;;;3.30;1.13;;;12.00;99.90;;;;;;5066922;28;20102;-89
2021/05/24 09:18:28;;;;;;;1.85;0.85;;;11.90;99.90;;;;;;5061779;28;20424;-88
2021/05/24 09:20:58;;;;;;;2.38;1.00;;;11.80;99.90;;;;;;5061649;28;20020;-87
2021/05/24 09:23:35;;;;;;;2.92;1.02;;;11.80;99.90;;;;;;5065274;28;20033;-88
2021/05/24 09:26:10;;;;;;;2.25;1.00;;;11.90;99.90;;;;;;5063846;28;20036;-88
2021/05/24 09:28:43;;;;;;;1.88;0.82;;;12.00;99.90;;;;;;5058365;28;20037;-88
2021/05/24 09:31:16;;;;;;;2.33;1.10;;;12.00;99.90;;;;;;5056557;28;20070;-88
2021/05/24 09:33:58;;;;;;;5.50;1.20;;;12.10;99.90;;;;;;5068781;28;20499;-88
2021/05/24 09:36:25;;;;;;;2.75;0.95;;;12.20;99.90;;;;;;5057692;28;20028;-89
2021/05/24 09:39:11;;;;;;;2.88;0.80;;;12.30;99.90;;;;;;5072345;28;20027;-90
2021/05/24 09:41:48;;;;;;;3.80;1.20;;;12.40;99.90;;;;;;5073542;28;20025;-90
2021/05/24 09:44:29;;;;;;;1.70;0.90;;;12.60;99.90;;;;;;5058874;28;20017;-89
2021/05/24 09:46:56;;;;;;;2.50;0.95;;;12.70;99.90;;;;;;5056785;28;20468;-90
2021/05/24 09:49:24;;;;;;;4.28;0.90;;;12.70;99.90;;;;;;5067648;28;20025;-90
2021/05/24 09:51:56;;;;;;;1.95;1.00;;;12.80;99.90;;;;;;5066096;28;20060;-89
2021/05/24 09:54:23;;;;;;;3.17;1.75;;;12.70;99.90;;;;;;5064302;28;20016;-88
2021/05/24 09:56:52;;;;;;;1.98;1.08;;;12.80;99.90;;;;;;5062128;28;20193;-87
2021/05/24 09:59:22;;;;;;;3.45;0.98;;;12.80;99.90;;;;;;5062900;28;20021;-88
2021/05/24 10:01:53;;;;;;;1.80;1.05;;;12.70;99.90;;;;;;5070184;28;20044;-91
2021/05/24 10:04:25;;;;;;;2.65;1.00;;;12.60;99.90;;;;;;5058334;28;20033;-91
2021/05/24 10:06:54;;;;;;;3.20;1.00;;;12.50;99.90;;;;;;5057529;28;20025;-89
2021/05/24 10:09:40;;;;;;;8.05;1.30;;;12.30;99.90;;;;;;5073964;28;20056;-89
2021/05/24 10:12:16;;;;;;;2.45;1.10;;;12.30;99.90;;;;;;5065836;28;20020;-89
2021/05/24 10:14:43;;;;;;;5.53;1.10;;;12.30;99.90;;;;;;5071741;28;20068;-91
2021/05/24 10:17:14;;;;;;;2.58;0.90;;;12.40;99.90;;;;;;5068513;28;20021;-88
2021/05/24 10:19:42;;;;;;;3.13;1.58;;;12.50;99.90;;;;;;5064858;28;20166;-88
2021/05/24 10:22:12;;;;;;;2.65;1.20;;;12.70;99.90;;;;;;5053419;28;20358;-88
2021/05/24 10:24:38;;;;;;;3.83;1.10;;;12.90;99.90;;;;;;5066488;28;20036;-88
2021/05/24 10:27:07;;;;;;;3.42;1.17;;;13.10;99.90;;;;;;5053256;28;20059;-88
2021/05/24 10:29:34;;;;;;;2.65;1.35;;;13.30;99.90;;;;;;5059947;28;20044;-90
2021/05/24 10:32:01;;;;;;;3.92;1.10;;;13.40;99.90;;;;;;5065016;28;20107;-92
2021/05/24 10:34:38;;;;;;;1.60;0.90;;;13.50;99.90;;;;;;5072842;28;20021;-88
2021/05/24 10:37:18;;;;;;;3.40;1.40;;;13.60;99.90;;;;;;5055174;28;20183;-92
2021/05/24 10:40:02;;;;;;;3.75;1.23;;;13.80;99.90;;;;;;5054369;28;20641;-90
2021/05/24 10:42:44;;;;;;;3.20;1.27;;;13.80;99.90;;;;;;5052676;28;20429;-90
2021/05/24 10:45:21;;;;;;;3.05;1.52;;;13.70;99.90;;;;;;5058645;28;20063;-87
2021/05/24 10:47:54;;;;;;;2.95;1.25;;;13.50;99.90;;;;;;5073173;28;20021;-87
2021/05/24 10:50:29;;;;;;;4.30;1.80;;;13.30;99.90;;;;;;5073906;28;20031;-88
2021/05/24 10:53:04;;;;;;;3.72;1.30;;;13.10;99.90;;;;;;5068427;28;20017;-89
2021/05/24 10:55:42;;;;;;;3.45;1.15;;;13.00;99.90;;;;;;5052477;28;20025;-88
2021/05/24 10:58:11;;;;;;;1.98;1.20;;;12.80;99.90;;;;;;5062439;28;20116;-87
2021/05/24 11:01:00;;;;;;;2.20;1.27;;;12.80;99.90;;;;;;5068892;28;20054;-88
2021/05/24 11:03:26;;;;;;;1.70;1.20;;;12.70;99.90;;;;;;5065166;28;20468;-88
2021/05/24 11:06:12;;;;;;;2.35;1.25;;;12.60;99.90;;;;;;5063634;28;20024;-86
2021/05/24 11:08:41;;;;;;;2.60;1.20;;;12.60;99.90;;;;;;5071124;28;20024;-88
2021/05/24 11:11:25;;;;;;;2.35;1.27;;;12.50;99.90;;;;;;5057608;28;20083;-88
2021/05/24 11:14:01;;;;;;;;;;;12.60;99.90;;;;;;5068144;28;20056;-88
2021/05/24 11:16:29;;;;;;;3.28;1.30;;;12.60;99.90;;;;;;5055124;28;19904;-88
2021/05/24 11:19:11;;;;;;;3.22;1.48;;;12.70;99.90;;;;;;5051776;28;20067;-89
2021/05/24 11:21:39;;;;;;;3.17;1.20;;;12.80;99.90;;;;;;5052656;28;20029;-91
2021/05/24 11:27:12;;;;;;;2.72;1.20;;;13.00;99.90;;;;;;5056432;28;20140;-88
2021/05/24 11:29:40;;;;;;;3.38;1.15;;;12.90;99.90;;;;;;5061077;28;20017;-87
2021/05/24 11:32:28;;;;;;;2.05;0.93;;;12.90;99.90;;;;;;5064263;28;20025;-87
2021/05/24 11:34:55;;;;;;;2.17;0.70;;;13.00;99.90;;;;;;5058923;28;20025;-88
2021/05/24 11:37:41;;;;;;;0.63;0.60;;;13.00;99.90;;;;;;5057090;28;20043;-88
2021/05/24 11:40:18;;;;;;;1.17;0.63;;;13.00;99.90;;;;;;5064676;28;20035;-90
2021/05/24 11:42:45;;;;;;;2.53;0.65;;;13.10;99.90;;;;;;5060983;28;20027;-89
2021/05/24 11:45:27;;;;;;;1.38;0.95;;;13.20;99.90;;;;;;5062662;28;20036;-88
2021/05/24 11:48:00;;;;;;;0.98;0.70;;;13.40;99.90;;;;;;5063355;28;20025;-90
2021/05/24 11:50:27;;;;;;;1.67;0.60;;;13.60;99.90;;;;;;5070328;28;20357;-89
2021/05/24 11:52:53;;;;;;;2.95;0.70;;;13.80;99.90;;;;;;5053110;28;20032;-88
2021/05/24 11:55:19;;;;;;;1.50;0.70;;;13.90;99.90;;;;;;5068328;28;20016;-89
2021/05/24 11:57:44;;;;;;;2.80;0.80;;;14.00;99.90;;;;;;5061610;28;20361;-87
2021/05/24 12:00:13;;;;;;;2.30;0.80;;;14.00;99.90;;;;;;5059915;28;20486;-88
2021/05/24 12:02:44;;;;;;;1.48;0.90;;;14.10;99.90;;;;;;5068021;28;20039;-89
2021/05/24 12:05:11;;;;;;;1.20;0.52;;;14.10;99.90;;;;;;5067730;28;20033;-87
2021/05/24 12:07:39;;;;;;;1.45;0.45;;;14.10;99.90;;;;;;5061879;28;20109;-88
2021/05/24 12:10:09;;;;;;;1.50;0.30;;;14.00;99.90;;;;;;5060146;28;20045;-90
2021/05/24 12:12:53;;;;;;;0.60;0.38;;;13.90;99.90;;;;;;5066319;28;20098;-87
2021/05/24 12:15:23;;;;;;;1.48;0.30;;;13.70;99.90;;;;;;5050617;28;20033;-88
2021/05/24 12:17:51;;;;;;;1.00;0.30;;;13.50;99.90;;;;;;5054700;28;20029;-90
2021/05/24 12:20:18;;;;;;;0.80;0.30;;;13.40;99.90;;;;;;5049954;28;20079;-87
2021/05/24 12:22:46;;;;;;;1.20;0.50;;;13.30;99.90;;;;;;5066110;28;20027;-88
2021/05/24 12:25:21;;;;;;;1.13;0.30;;;13.30;99.90;;;;;;5056036;28;20028;-89
2021/05/24 12:27:50;;;;;;;0.55;0.40;;;13.40;99.90;;;;;;5066529;28;20044;-89
2021/05/24 12:30:29;;;;;;;0.43;0.30;;;13.70;99.90;;;;;;5059366;28;20035;-88
2021/05/24 12:33:03;;;;;;;0.45;0.30;;;14.00;99.90;;;;;;5063430;28;20132;-89
2021/05/24 12:35:52;;;;;;;2.05;0.60;;;14.30;99.90;;;;;;5061209;28;20032;-90
2021/05/24 12:41:02;;;;;;;0.65;0.30;;;14.20;99.90;;;;;;5073416;28;20021;-90
2021/05/24 12:43:30;;;;;;;0.77;0.40;;;14.20;99.90;;;;;;5045926;28;20032;-88
2021/05/24 12:45:58;;;;;;;1.67;0.40;;;14.10;99.90;;;;;;5047553;28;20052;-89
2021/05/24 12:48:31;;;;;;;0.70;0.40;;;14.10;99.90;;;;;;5035637;28;20016;-91
2021/05/24 12:51:01;;;;;;;0.30;0.30;;;14.30;99.90;;;;;;5060775;28;20460;-89
2021/05/24 12:53:28;;;;;;;0.77;0.30;;;14.40;99.90;;;;;;5056257;28;20086;-89
2021/05/24 12:56:06;;;;;;;2.42;0.50;;;14.40;99.90;;;;;;5057200;28;20420;-90
2021/05/24 12:58:37;;;;;;;1.17;0.60;;;14.40;99.90;;;;;;5054328;28;20036;-90
2021/05/24 13:01:03;;;;;;;1.27;0.50;;;14.40;99.90;;;;;;5051237;28;20098;-91
2021/05/24 13:03:46;;;;;;;0.57;0.47;;;14.30;99.90;;;;;;5042812;28;20766;-88
2021/05/24 13:06:14;;;;;;;0.85;0.60;;;14.30;99.90;;;;;;5062840;28;20041;-87
2021/05/24 13:09:14;;;;;;;1.27;0.40;;;14.10;99.90;;;;;;5062798;28;20033;-87
2021/05/24 13:12:05;;;;;;;1.10;0.40;;;14.00;99.90;;;;;;5068246;28;20059;-89